createdAt,value
2023-06-07T00:02:13.313Z,61.24
2023-06-07T00:05:22.319Z,61.24
2023-06-07T00:08:24.498Z,61.29
2023-06-07T00:11:26.135Z,61.13
2023-06-07T00:14:27.977Z,61.29
2023-06-07T00:17:29.887Z,61.28
2023-06-07T00:20:32.227Z,61.35
2023-06-07T00:23:36.048Z,61.38
2023-06-07T00:26:39.779Z,61.43
2023-06-07T00:29:41.634Z,61.53
2023-06-07T00:32:44.655Z,61.57
2023-06-07T00:35:49.076Z,61.85
2023-06-07T00:38:51.115Z,61.83
2023-06-07T00:41:53.265Z,61.90
2023-06-07T00:44:55.031Z,61.97
2023-06-07T00:47:57.349Z,62.08
2023-06-07T00:50:59.127Z,61.91
2023-06-07T00:54:05.876Z,62.00
2023-06-07T00:57:08.266Z,62.02
2023-06-07T01:00:13.773Z,62.17
2023-06-07T01:03:15.809Z,62.16
2023-06-07T01:06:17.923Z,62.24
2023-06-07T01:09:23.260Z,62.31
2023-06-07T01:12:25.989Z,62.29
2023-06-07T01:15:30.259Z,62.46
2023-06-07T01:18:33.422Z,62.52
2023-06-07T01:21:38.190Z,62.51
2023-06-07T01:24:43.596Z,62.50
2023-06-07T01:27:46.577Z,62.67
2023-06-07T01:30:49.295Z,62.68
2023-06-07T01:33:53.502Z,62.62
2023-06-07T01:36:56.449Z,62.77
2023-06-07T01:39:58.851Z,62.81
2023-06-07T01:43:01.222Z,62.82
2023-06-07T01:46:05.300Z,62.88
2023-06-07T01:49:07.132Z,63.04
2023-06-07T01:52:08.965Z,62.96
2023-06-07T01:55:11.017Z,63.08
2023-06-07T01:58:24.148Z,63.11
2023-06-07T02:01:34.360Z,63.03
2023-06-07T02:04:43.577Z,63.17
2023-06-07T02:07:51.154Z,63.13
2023-06-07T02:10:54.623Z,63.06
2023-06-07T02:13:56.681Z,63.10
2023-06-07T02:16:58.628Z,63.07
2023-06-07T02:20:00.569Z,63.19
2023-06-07T02:23:02.869Z,63.27
2023-06-07T02:26:05.096Z,63.23
2023-06-07T02:29:06.752Z,63.27
2023-06-07T02:32:08.884Z,63.28
2023-06-07T02:35:10.564Z,63.36
2023-06-07T02:38:12.277Z,63.41
2023-06-07T02:41:14.018Z,63.39
2023-06-07T02:44:15.765Z,63.49
2023-06-07T02:47:17.594Z,63.49
2023-06-07T02:50:19.659Z,63.52
2023-06-07T02:53:22.876Z,63.44
2023-06-07T02:56:24.669Z,63.69
2023-06-07T02:59:27.473Z,63.70
2023-06-07T03:02:29.509Z,63.75
2023-06-07T03:05:31.782Z,63.71
2023-06-07T03:08:37.412Z,63.74
2023-06-07T03:11:40.038Z,63.91
2023-06-07T03:14:42.993Z,63.79
2023-06-07T03:17:46.395Z,63.73
2023-06-07T03:20:49.047Z,63.82
2023-06-07T03:23:53.681Z,63.90
2023-06-07T03:26:58.234Z,63.99
2023-06-07T03:30:00.471Z,64.01
2023-06-07T03:33:02.709Z,64.00
2023-06-07T03:36:07.929Z,64.07
2023-06-07T03:39:10.308Z,64.06
2023-06-07T03:42:12.395Z,64.13
2023-06-07T03:45:15.380Z,64.28
2023-06-07T03:48:17.646Z,64.30
2023-06-07T03:51:19.552Z,64.41
2023-06-07T03:54:21.398Z,64.34
2023-06-07T03:57:23.685Z,64.30
2023-06-07T04:00:27.865Z,64.35
2023-06-07T04:03:33.336Z,64.31
2023-06-07T04:06:36.984Z,64.42
2023-06-07T04:09:40.547Z,64.39
2023-06-07T04:12:44.039Z,64.35
2023-06-07T04:15:46.385Z,64.29
2023-06-07T04:18:48.436Z,64.42
2023-06-07T04:21:50.441Z,64.51
2023-06-07T04:24:52.338Z,64.42
2023-06-07T04:27:59.885Z,64.45
2023-06-07T04:31:02.657Z,64.56
2023-06-07T04:34:06.286Z,64.61
2023-06-07T04:37:09.753Z,64.50
2023-06-07T04:40:14.628Z,64.69
2023-06-07T04:43:18.878Z,64.69
2023-06-07T04:46:21.431Z,64.64
2023-06-07T04:49:23.869Z,64.63
2023-06-07T04:52:27.676Z,64.59
2023-06-07T04:55:36.155Z,64.45
2023-06-07T04:58:42.094Z,64.43
2023-06-07T05:01:45.691Z,64.55
2023-06-07T05:04:47.725Z,64.46
2023-06-07T05:07:50.352Z,64.50
2023-06-07T05:10:52.083Z,64.58
2023-06-07T05:13:56.560Z,64.56
2023-06-07T05:17:01.828Z,64.44
2023-06-07T05:20:12.586Z,64.55
2023-06-07T05:23:17.195Z,64.41
2023-06-07T05:26:22.893Z,64.37
2023-06-07T05:29:24.795Z,64.44
2023-06-07T05:32:26.890Z,64.44
2023-06-07T05:35:29.120Z,64.44
2023-06-07T05:38:32.250Z,64.45
2023-06-07T05:41:35.962Z,64.52
2023-06-07T05:44:38.165Z,64.46
2023-06-07T05:47:41.374Z,64.42
2023-06-07T05:50:43.315Z,64.33
2023-06-07T05:53:45.113Z,64.29
2023-06-07T05:56:49.006Z,64.28
2023-06-07T05:59:51.377Z,64.34
2023-06-07T06:02:57.111Z,64.40
2023-06-07T06:05:59.038Z,64.34
2023-06-07T06:09:01.150Z,64.34
2023-06-07T06:12:03.479Z,64.44
2023-06-07T06:15:06.334Z,64.29
2023-06-07T06:18:08.222Z,64.25
2023-06-07T06:21:10.194Z,64.12
2023-06-07T06:24:11.985Z,64.12
2023-06-07T06:27:13.842Z,64.11
2023-06-07T06:30:17.736Z,64.06
2023-06-07T06:33:19.633Z,63.99
2023-06-07T06:36:21.420Z,64.03
2023-06-07T06:39:26.478Z,64.12
2023-06-07T06:42:28.303Z,63.90
2023-06-07T06:45:58.893Z,63.78
2023-06-07T06:49:11.359Z,63.99
2023-06-07T06:55:27.144Z,63.75
2023-06-07T06:58:32.068Z,63.82
2023-06-07T07:01:53.419Z,63.62
2023-06-07T07:04:56.945Z,63.65
2023-06-07T07:08:00.053Z,63.63
2023-06-07T07:11:03.839Z,63.70
2023-06-07T07:14:06.959Z,63.48
2023-06-07T07:17:10.056Z,63.37
2023-06-07T07:20:13.921Z,63.27
2023-06-07T07:23:20.960Z,62.99
2023-06-07T07:26:24.373Z,62.79
2023-06-07T07:29:29.007Z,62.50
2023-06-07T07:32:34.118Z,62.54
2023-06-07T07:35:37.473Z,62.52
2023-06-07T07:38:41.649Z,62.41
2023-06-07T07:41:45.051Z,62.47
2023-06-07T07:44:48.201Z,62.50
2023-06-07T07:47:51.494Z,62.31
2023-06-07T07:50:56.429Z,62.11
2023-06-07T07:53:59.961Z,62.04
2023-06-07T07:57:03.221Z,61.91
2023-06-07T08:00:07.119Z,61.55
2023-06-07T08:03:16.824Z,61.54
2023-06-07T08:06:20.072Z,61.12
2023-06-07T08:09:23.172Z,60.95
2023-06-07T08:12:26.224Z,60.76
2023-06-07T08:15:29.409Z,60.64
2023-06-07T08:18:32.424Z,60.36
2023-06-07T08:21:36.808Z,60.20
2023-06-07T08:24:39.925Z,60.34
2023-06-07T08:27:43.325Z,60.31
2023-06-07T08:30:48.750Z,60.06
2023-06-07T08:33:52.926Z,59.99
2023-06-07T08:36:56.179Z,59.60
2023-06-07T08:39:59.233Z,59.29
2023-06-07T08:43:02.432Z,59.28
2023-06-07T08:46:06.072Z,59.08
2023-06-07T08:49:12.175Z,58.82
2023-06-07T08:52:17.374Z,58.69
2023-06-07T08:55:21.005Z,58.63
2023-06-07T08:58:25.954Z,58.19
2023-06-07T09:01:36.586Z,57.88
2023-06-07T09:04:42.317Z,57.83
2023-06-07T09:07:45.478Z,57.51
2023-06-07T09:10:48.575Z,57.30
2023-06-07T09:13:52.028Z,56.75
2023-06-07T09:16:56.734Z,56.39
2023-06-07T09:19:59.932Z,55.96
2023-06-07T09:23:10.435Z,55.84
2023-06-07T09:26:14.900Z,55.62
2023-06-07T09:29:20.079Z,55.81
2023-06-07T09:32:25.431Z,55.94
2023-06-07T09:35:29.349Z,55.52
2023-06-07T09:38:32.523Z,55.26
2023-06-07T09:41:35.724Z,54.97
2023-06-07T09:44:39.062Z,55.15
2023-06-07T09:47:46.462Z,54.97
2023-06-07T09:50:57.216Z,54.79
2023-06-07T09:54:02.424Z,54.82
2023-06-07T09:57:08.090Z,54.81
2023-06-07T10:00:18.992Z,54.70
2023-06-07T10:03:22.121Z,55.00
2023-06-07T10:06:25.988Z,55.06
2023-06-07T10:09:31.019Z,55.14
2023-06-07T10:12:39.935Z,55.39
2023-06-07T10:15:46.003Z,55.66
2023-06-07T10:18:52.451Z,55.68
2023-06-07T10:21:58.880Z,55.67
2023-06-07T10:25:13.368Z,55.60
2023-06-07T10:28:59.546Z,55.47
2023-06-07T10:32:17.004Z,55.60
2023-06-07T10:35:21.633Z,55.60
2023-06-07T10:38:25.689Z,55.37
2023-06-07T10:41:30.007Z,55.21
2023-06-07T10:44:33.747Z,55.58
2023-06-07T10:47:37.075Z,54.73
2023-06-07T10:50:48.079Z,54.46
2023-06-07T10:53:51.383Z,53.99
2023-06-07T10:56:54.739Z,54.08
2023-06-07T11:00:31.317Z,54.02
2023-06-07T11:03:34.881Z,53.38
2023-06-07T11:07:17.068Z,52.94
2023-06-07T11:10:20.135Z,52.99
2023-06-07T11:13:23.273Z,53.02
2023-06-07T11:16:27.115Z,52.51
2023-06-07T11:19:56.631Z,51.89
2023-06-07T11:23:35.653Z,51.56
2023-06-07T11:26:39.216Z,51.12
2023-06-07T11:29:44.245Z,50.98
2023-06-07T11:32:47.322Z,50.61
2023-06-07T11:35:51.382Z,50.49
2023-06-07T11:38:57.000Z,50.67
2023-06-07T11:42:00.090Z,50.38
2023-06-07T11:45:03.355Z,50.43
2023-06-07T11:48:07.350Z,50.68
2023-06-07T11:51:10.461Z,50.20
2023-06-07T11:54:13.870Z,49.65
2023-06-07T11:57:17.465Z,49.77
2023-06-07T12:00:24.600Z,49.26
2023-06-07T12:03:28.319Z,48.69
2023-06-07T12:06:31.723Z,48.45
2023-06-07T12:09:43.884Z,48.10
2023-06-07T12:12:47.126Z,48.09
2023-06-07T12:15:57.026Z,47.67
2023-06-07T12:19:00.377Z,47.81
2023-06-07T12:22:05.193Z,47.64
2023-06-07T12:25:13.411Z,48.04
2023-06-07T12:28:17.705Z,48.31
2023-06-07T12:31:23.224Z,47.83
2023-06-07T12:34:31.385Z,47.49
2023-06-07T12:37:38.601Z,47.34
2023-06-07T12:40:42.009Z,47.15
2023-06-07T12:43:47.498Z,47.40
2023-06-07T12:46:50.666Z,47.82
2023-06-07T12:49:53.900Z,48.05
2023-06-07T12:52:57.598Z,48.05
2023-06-07T12:56:00.753Z,47.96
2023-06-07T12:59:04.509Z,48.01
2023-06-07T13:02:07.823Z,48.03
2023-06-07T13:05:12.345Z,47.90
2023-06-07T13:08:15.502Z,47.71
2023-06-07T13:11:19.621Z,47.69
2023-06-07T13:14:22.704Z,46.62
2023-06-07T13:17:26.103Z,46.04
2023-06-07T13:20:29.412Z,45.97
2023-06-07T13:23:32.449Z,45.58
2023-06-07T13:26:35.494Z,44.78
2023-06-07T13:29:39.486Z,44.55
2023-06-07T13:32:42.711Z,44.38
2023-06-07T13:35:46.204Z,44.01
2023-06-07T13:38:49.965Z,43.71
2023-06-07T13:41:53.094Z,43.70
2023-06-07T13:44:56.230Z,43.62
2023-06-07T13:47:59.849Z,43.76
2023-06-07T13:51:05.231Z,43.69
2023-06-07T13:54:08.324Z,43.36
2023-06-07T13:57:11.414Z,43.25
2023-06-07T14:00:15.082Z,42.67
2023-06-07T14:03:21.239Z,42.72
2023-06-07T14:06:24.814Z,42.52
2023-06-07T14:09:28.748Z,42.31
2023-06-07T14:12:31.919Z,42.34
2023-06-07T14:15:35.029Z,42.46
2023-06-07T14:18:38.052Z,41.80
2023-06-07T14:21:41.244Z,41.88
2023-06-07T14:24:44.618Z,41.90
2023-06-07T14:27:47.736Z,42.10
2023-06-07T14:30:51.845Z,42.19
2023-06-07T14:33:54.989Z,42.00
2023-06-07T14:36:57.983Z,42.08
2023-06-07T14:40:01.492Z,41.76
2023-06-07T14:43:04.647Z,41.51
2023-06-07T14:46:07.897Z,41.58
2023-06-07T14:49:11.352Z,41.28
2023-06-07T14:52:14.446Z,41.31
2023-06-07T14:55:17.939Z,41.32
2023-06-07T14:58:21.166Z,41.56
2023-06-07T15:01:26.437Z,41.27
2023-06-07T15:04:29.570Z,41.40
2023-06-07T15:07:32.557Z,41.19
2023-06-07T15:10:35.838Z,41.07
2023-06-07T15:13:39.138Z,41.39
2023-06-07T15:16:42.262Z,41.84
2023-06-07T15:19:45.909Z,41.88
2023-06-07T15:22:49.040Z,41.72
2023-06-07T15:25:52.098Z,41.57
2023-06-07T15:28:58.074Z,41.54
2023-06-07T15:32:02.076Z,41.71
2023-06-07T15:35:05.640Z,41.58
2023-06-07T15:38:08.662Z,41.82
2023-06-07T15:41:15.034Z,42.16
2023-06-07T15:44:18.858Z,42.20
2023-06-07T15:47:21.940Z,42.38
2023-06-07T15:50:25.039Z,42.34
2023-06-07T15:53:28.105Z,42.76
2023-06-07T15:56:31.246Z,42.80
2023-06-07T15:59:36.368Z,43.03
2023-06-07T16:02:39.467Z,42.84
2023-06-07T16:05:42.764Z,42.73
2023-06-07T16:08:45.794Z,43.02
2023-06-07T16:11:49.024Z,43.13
2023-06-07T16:14:52.289Z,43.03
2023-06-07T16:17:55.512Z,42.89
2023-06-07T16:20:58.610Z,42.98
2023-06-07T16:24:03.827Z,43.22
2023-06-07T16:27:07.270Z,43.37
2023-06-07T16:30:10.989Z,43.27
2023-06-07T16:33:14.193Z,43.62
2023-06-07T16:36:18.487Z,43.58
2023-06-07T16:39:21.518Z,43.59
2023-06-07T16:42:24.596Z,43.77
2023-06-07T16:45:27.659Z,44.13
2023-06-07T16:48:30.655Z,44.15
2023-06-07T16:51:34.081Z,44.12
2023-06-07T16:54:37.066Z,44.18
2023-06-07T16:57:40.516Z,44.45
2023-06-07T17:00:43.812Z,44.48
2023-06-07T17:03:46.957Z,44.66
2023-06-07T17:06:50.025Z,44.78
2023-06-07T17:09:53.060Z,44.85
2023-06-07T17:12:56.098Z,45.15
2023-06-07T17:15:59.235Z,45.15
2023-06-07T17:19:03.548Z,45.30
2023-06-07T17:22:07.176Z,45.46
2023-06-07T17:25:10.443Z,45.72
2023-06-07T17:28:13.603Z,45.93
2023-06-07T17:31:16.928Z,46.09
2023-06-07T17:34:20.031Z,46.21
2023-06-07T17:37:23.069Z,46.50
2023-06-07T17:40:26.129Z,46.52
2023-06-07T17:43:29.361Z,46.72
2023-06-07T17:46:35.584Z,46.79
2023-06-07T17:49:38.599Z,47.00
2023-06-07T17:52:41.558Z,47.23
2023-06-07T17:55:46.793Z,47.39
2023-06-07T17:58:50.034Z,47.51
2023-06-07T18:01:55.178Z,47.57
2023-06-07T18:04:58.428Z,47.48
2023-06-07T18:08:01.643Z,47.28
2023-06-07T18:11:04.672Z,47.18
2023-06-07T18:14:07.758Z,47.12
2023-06-07T18:17:11.384Z,47.10
2023-06-07T18:20:14.497Z,47.17
2023-06-07T18:23:17.621Z,47.27
2023-06-07T18:26:22.674Z,47.34
2023-06-07T18:29:26.007Z,47.33
2023-06-07T18:32:29.035Z,47.58
2023-06-07T18:35:32.837Z,47.81
2023-06-07T18:38:36.168Z,47.96
2023-06-07T18:41:39.661Z,48.11
2023-06-07T18:44:42.774Z,48.02
2023-06-07T18:47:46.351Z,48.17
2023-06-07T18:50:49.793Z,48.23
2023-06-07T18:53:54.186Z,48.39
2023-06-07T18:56:58.365Z,48.69
2023-06-07T19:00:01.693Z,48.72
2023-06-07T19:03:05.042Z,48.84
2023-06-07T19:06:10.861Z,49.22
2023-06-07T19:09:15.474Z,49.29
2023-06-07T19:12:18.559Z,49.44
2023-06-07T19:15:22.007Z,49.38
2023-06-07T19:18:25.091Z,49.61
2023-06-07T19:21:32.202Z,49.74
2023-06-07T19:24:43.448Z,49.78
2023-06-07T19:27:46.631Z,49.95
2023-06-07T19:30:49.775Z,50.19
2023-06-07T19:33:53.804Z,50.41
2023-06-07T19:36:56.940Z,50.49
2023-06-07T19:40:05.986Z,50.68
2023-06-07T19:43:09.004Z,50.65
2023-06-07T19:46:12.177Z,50.87
2023-06-07T19:49:15.383Z,50.97
2023-06-07T19:52:19.430Z,51.17
2023-06-07T19:55:22.488Z,51.26
2023-06-07T19:58:25.488Z,51.56
2023-06-07T20:01:30.938Z,51.57
2023-06-07T20:04:34.210Z,51.80
2023-06-07T20:07:37.217Z,52.13
2023-06-07T20:10:40.393Z,52.28
2023-06-07T20:13:43.501Z,52.47
2023-06-07T20:16:46.817Z,52.61
2023-06-07T20:19:49.897Z,52.69
2023-06-07T20:22:53.070Z,52.87
2023-06-07T20:25:57.066Z,52.83
2023-06-07T20:29:02.325Z,52.96
2023-06-07T20:32:06.502Z,53.18
2023-06-07T20:35:09.928Z,53.26
2023-06-07T20:38:13.070Z,53.22
2023-06-07T20:41:16.284Z,53.33
2023-06-07T20:44:19.533Z,53.59
2023-06-07T20:47:22.690Z,53.43
2023-06-07T20:50:26.267Z,53.61
2023-06-07T20:53:29.614Z,53.63
2023-06-07T20:56:33.969Z,53.75
2023-06-07T20:59:44.643Z,53.82
2023-06-07T21:02:47.825Z,53.71
2023-06-07T21:05:50.922Z,53.84
2023-06-07T21:08:53.914Z,53.85
2023-06-07T21:11:56.965Z,53.94
2023-06-07T21:15:00.254Z,54.12
2023-06-07T21:18:03.643Z,54.21
2023-06-07T21:21:06.858Z,54.23
2023-06-07T21:24:10.111Z,54.27
2023-06-07T21:27:13.258Z,54.28
2023-06-07T21:30:16.462Z,54.30
2023-06-07T21:33:20.475Z,54.47
2023-06-07T21:36:23.493Z,54.46
2023-06-07T21:39:26.516Z,54.59
2023-06-07T21:42:29.573Z,54.68
2023-06-07T21:45:32.605Z,54.75
2023-06-07T21:48:40.059Z,54.79
2023-06-07T21:51:43.068Z,54.92
2023-06-07T21:54:47.880Z,54.92
2023-06-07T21:57:51.086Z,55.12
2023-06-07T22:00:54.338Z,55.25
2023-06-07T22:03:57.436Z,55.33
2023-06-07T22:07:00.637Z,55.35
2023-06-07T22:10:04.160Z,55.45
2023-06-07T22:13:07.309Z,55.63
2023-06-07T22:16:10.383Z,55.56
2023-06-07T22:19:15.565Z,55.69
2023-06-07T22:22:18.662Z,55.79
2023-06-07T22:25:39.455Z,55.97
2023-06-07T22:28:45.719Z,55.96
2023-06-07T22:31:49.043Z,55.85
2023-06-07T22:34:54.402Z,55.98
2023-06-07T22:37:58.003Z,55.96
2023-06-07T22:41:01.686Z,56.11
2023-06-07T22:44:05.299Z,56.06
2023-06-07T22:47:08.521Z,56.12
2023-06-07T22:50:11.898Z,56.30
2023-06-07T22:53:15.587Z,56.43
2023-06-07T22:56:18.708Z,56.44
2023-06-07T22:59:23.066Z,56.62
2023-06-07T23:02:27.025Z,56.57
2023-06-07T23:05:30.285Z,56.62
2023-06-07T23:08:33.926Z,56.55
2023-06-07T23:11:38.795Z,56.67
2023-06-07T23:14:41.915Z,56.61
2023-06-07T23:17:45.744Z,56.64
2023-06-07T23:20:49.992Z,56.71
2023-06-07T23:23:53.418Z,56.83
2023-06-07T23:26:59.612Z,56.88
2023-06-07T23:30:02.727Z,56.96
2023-06-07T23:33:07.265Z,57.15
2023-06-07T23:36:10.313Z,57.24
2023-06-07T23:39:13.347Z,57.16
2023-06-07T23:42:17.403Z,57.24
2023-06-07T23:45:22.175Z,57.09
2023-06-07T23:48:26.217Z,57.00
2023-06-07T23:51:29.336Z,57.31
2023-06-07T23:54:32.455Z,57.42
2023-06-07T23:57:35.550Z,57.20
